createdAt,value
2023-01-20T00:01:09.794Z,97969.19
2023-01-20T00:03:36.866Z,97977.16
2023-01-20T00:06:03.708Z,97983.56
2023-01-20T00:08:30.267Z,97984.59
2023-01-20T00:10:57.796Z,97987.50
2023-01-20T00:13:24.466Z,97990.88
2023-01-20T00:15:50.889Z,97991.69
2023-01-20T00:18:17.432Z,97995.16
2023-01-20T00:20:43.933Z,97999.44
2023-01-20T00:23:10.372Z,97995.16
2023-01-20T00:25:37.134Z,98004.75
2023-01-20T00:28:04.361Z,97997.81
2023-01-20T00:30:31.077Z,98007.22
2023-01-20T00:32:57.676Z,98005.09
2023-01-20T00:35:24.129Z,98010.75
2023-01-20T00:37:50.624Z,98008.69
2023-01-20T00:40:17.216Z,98005.44
2023-01-20T00:42:43.743Z,98008.91
2023-01-20T00:45:10.606Z,98016.09
2023-01-20T00:47:37.086Z,98021.41
2023-01-20T00:50:03.820Z,98012.41
2023-01-20T00:52:30.351Z,98015.38
2023-01-20T00:54:56.840Z,98017.00
2023-01-20T00:57:23.242Z,98025.22
2023-01-20T00:59:49.662Z,98024.19
2023-01-20T01:02:16.217Z,98019.91
2023-01-20T01:04:42.862Z,98030.31
2023-01-20T01:07:09.473Z,98028.69
2023-01-20T01:09:36.075Z,98032.72
2023-01-20T01:12:02.546Z,98038.66
2023-01-20T01:14:32.219Z,98045.59
2023-01-20T01:16:58.792Z,98040.50
2023-01-20T01:19:25.277Z,98046.66
2023-01-20T01:21:51.734Z,98049.88
2023-01-20T01:24:18.277Z,98052.31
2023-01-20T01:26:44.718Z,98058.44
2023-01-20T01:29:11.130Z,98063.31
2023-01-20T01:31:38.991Z,98064.94
2023-01-20T01:34:05.612Z,98065.97
2023-01-20T01:36:32.070Z,98067.03
2023-01-20T01:38:59.294Z,98067.47
2023-01-20T01:41:26.170Z,98077.69
2023-01-20T01:44:03.803Z,98073.97
2023-01-20T01:46:30.773Z,98073.97
2023-01-20T01:49:00.680Z,98072.91
2023-01-20T01:51:32.957Z,98073.97
2023-01-20T01:54:07.680Z,98074.78
2023-01-20T01:56:34.471Z,98073.16
2023-01-20T01:59:03.350Z,98072.34
2023-01-20T02:01:32.201Z,98075.03
2023-01-20T02:04:12.244Z,98072.34
2023-01-20T02:06:42.457Z,98080.91
2023-01-20T02:09:09.100Z,98071.06
2023-01-20T02:11:45.258Z,98078.81
2023-01-20T02:14:12.206Z,98079.63
2023-01-20T02:16:58.217Z,98082.53
2023-01-20T02:19:27.853Z,98085.69
2023-01-20T02:22:17.849Z,98092.28
2023-01-20T02:25:04.506Z,98093.09
2023-01-20T02:27:55.563Z,98091.00
2023-01-20T02:30:25.042Z,98084.63
2023-01-20T02:33:17.846Z,98091.56
2023-01-20T02:35:49.596Z,98102.25
2023-01-20T02:38:31.287Z,98101.19
2023-01-20T02:41:10.147Z,98099.31
2023-01-20T02:43:52.421Z,98096.09
2023-01-20T02:46:33.230Z,98096.56
2023-01-20T02:49:09.934Z,98100.75
2023-01-20T02:52:02.022Z,98105.84
2023-01-20T02:54:32.728Z,98111.75
2023-01-20T02:57:02.356Z,98120.78
2023-01-20T02:59:36.653Z,98111.19
2023-01-20T03:02:08.552Z,98110.38
2023-01-20T03:04:47.836Z,98116.25
2023-01-20T03:07:16.729Z,98110.69
2023-01-20T03:09:53.403Z,98116.25
2023-01-20T03:12:29.366Z,98115.47
2023-01-20T03:14:56.093Z,98118.59
2023-01-20T03:17:22.883Z,98123.34
2023-01-20T03:19:49.705Z,98124.88
2023-01-20T03:22:16.535Z,98123.47
2023-01-20T03:24:46.234Z,98125.94
2023-01-20T03:27:13.121Z,98129.03
2023-01-20T03:29:39.568Z,98131.72
2023-01-20T03:32:08.775Z,98127.91
2023-01-20T03:34:38.374Z,98125.69
2023-01-20T03:37:05.606Z,98127.31
2023-01-20T03:39:33.743Z,98146.56
2023-01-20T03:42:15.696Z,98139.13
2023-01-20T03:45:06.515Z,98139.69
2023-01-20T03:48:09.545Z,98148.03
2023-01-20T03:50:44.721Z,98155.31
2023-01-20T03:53:59.270Z,98146.31
2023-01-20T03:56:32.073Z,98148.72
2023-01-20T03:59:01.259Z,98155.09
2023-01-20T04:01:34.398Z,98157.97
2023-01-20T04:04:03.785Z,98164.38
2023-01-20T04:06:33.522Z,98161.13
2023-01-20T04:09:04.659Z,98164.84
2023-01-20T04:11:31.317Z,98161.63
2023-01-20T04:13:57.898Z,98167.97
2023-01-20T04:16:25.703Z,98177.47
2023-01-20T04:18:53.476Z,98168.91
2023-01-20T04:21:48.279Z,98178.75
2023-01-20T04:24:26.113Z,98177.25
2023-01-20T04:26:52.685Z,98179.66
2023-01-20T04:29:19.370Z,98186.63
2023-01-20T04:31:45.955Z,98186.63
2023-01-20T04:34:15.377Z,98186.63
2023-01-20T04:36:42.126Z,98189.88
2023-01-20T04:39:09.222Z,98200.06
2023-01-20T04:41:35.770Z,98201.47
2023-01-20T04:44:02.223Z,98197.16
2023-01-20T04:46:28.818Z,98199.00
2023-01-20T04:48:55.255Z,98207.81
2023-01-20T04:51:21.638Z,98204.94
2023-01-20T04:53:48.058Z,98208.41
2023-01-20T04:56:15.729Z,98216.16
2023-01-20T04:58:42.952Z,98212.69
2023-01-20T05:01:09.976Z,98219.06
2023-01-20T05:03:36.587Z,98221.50
2023-01-20T05:06:03.323Z,98220.44
2023-01-20T05:08:29.866Z,98231.09
2023-01-20T05:10:56.361Z,98229.72
2023-01-20T05:13:22.850Z,98235.25
2023-01-20T05:15:49.295Z,98238.97
2023-01-20T05:18:16.012Z,98238.97
2023-01-20T05:20:45.225Z,98245.34
2023-01-20T05:23:11.751Z,98250.69
2023-01-20T05:25:38.206Z,98247.22
2023-01-20T05:28:05.205Z,98252.09
2023-01-20T05:30:32.451Z,98252.91
2023-01-20T05:32:59.025Z,98253.91
2023-01-20T05:35:25.784Z,98257.06
2023-01-20T05:37:55.613Z,98262.63
2023-01-20T05:40:22.119Z,98264.50
2023-01-20T05:42:48.553Z,98267.16
2023-01-20T05:45:15.290Z,98268.19
2023-01-20T05:47:41.933Z,98278.03
2023-01-20T05:50:09.086Z,98279.31
2023-01-20T05:52:35.682Z,98277.69
2023-01-20T05:55:02.261Z,98275.25
2023-01-20T05:57:28.678Z,98277.31
2023-01-20T05:59:55.738Z,98284.16
2023-01-20T06:02:22.259Z,98284.41
2023-01-20T06:04:49.400Z,98284.41
2023-01-20T06:07:15.993Z,98286.03
2023-01-20T06:09:42.417Z,98281.75
2023-01-20T06:12:08.994Z,98288.09
2023-01-20T06:14:35.444Z,98292.41
2023-01-20T06:17:01.927Z,98292.59
2023-01-20T06:19:28.387Z,98297.94
2023-01-20T06:21:54.789Z,98295.50
2023-01-20T06:24:21.301Z,98298.16
2023-01-20T06:26:50.483Z,98297.59
2023-01-20T06:29:16.925Z,98301.31
2023-01-20T06:31:44.832Z,98307.69
2023-01-20T06:34:12.217Z,98313.81
2023-01-20T06:36:39.378Z,98317.28
2023-01-20T06:39:05.938Z,98322.63
2023-01-20T06:41:32.656Z,98330.00
2023-01-20T06:43:59.216Z,98332.91
2023-01-20T06:46:25.991Z,98336.38
2023-01-20T06:48:52.539Z,98331.66
2023-01-20T06:51:20.286Z,98345.56
2023-01-20T06:53:47.542Z,98346.13
2023-01-20T06:56:15.197Z,98351.44
2023-01-20T06:58:41.976Z,98354.94
2023-01-20T07:01:24.537Z,98354.47
2023-01-20T07:03:51.280Z,98363.53
2023-01-20T07:06:23.345Z,98369.66
2023-01-20T07:08:49.914Z,98368.00
2023-01-20T07:11:16.862Z,98371.28
2023-01-20T07:13:43.700Z,98375.56
2023-01-20T07:16:13.062Z,98379.84
2023-01-20T07:18:41.031Z,98378.22
2023-01-20T07:21:10.356Z,98386.47
2023-01-20T07:23:36.871Z,98388.88
2023-01-20T07:26:09.022Z,98399.53
2023-01-20T07:28:36.154Z,98398.97
2023-01-20T07:31:07.072Z,98403.69
2023-01-20T07:33:34.032Z,98410.63
2023-01-20T07:36:01.949Z,98417.16
2023-01-20T07:38:29.151Z,98423.88
2023-01-20T07:41:05.143Z,98414.63
2023-01-20T07:43:32.499Z,98420.53
2023-01-20T07:46:03.896Z,98431.19
2023-01-20T07:48:32.393Z,98432.22
2023-01-20T07:51:05.616Z,98440.81
2023-01-20T07:53:34.600Z,98436.06
2023-01-20T07:56:05.761Z,98435.84
2023-01-20T07:58:32.480Z,98442.13
2023-01-20T08:01:09.782Z,98444.88
2023-01-20T08:03:37.012Z,98446.41
2023-01-20T08:06:04.898Z,98455.13
2023-01-20T08:08:32.720Z,98451.78
2023-01-20T08:11:01.221Z,98457.47
2023-01-20T08:13:28.579Z,98451.66
2023-01-20T08:15:55.433Z,98459.56
2023-01-20T08:18:22.176Z,98467.47
2023-01-20T08:20:48.607Z,98459.91
2023-01-20T08:23:15.038Z,98472.91
2023-01-20T08:25:41.480Z,98461.78
2023-01-20T08:28:08.039Z,98473.63
2023-01-20T08:30:35.059Z,98466.66
2023-01-20T08:33:01.738Z,98477.56
2023-01-20T08:35:28.295Z,98478.25
2023-01-20T08:37:54.796Z,98478.72
2023-01-20T08:40:21.264Z,98483.47
2023-01-20T08:42:48.222Z,98481.63
2023-01-20T08:45:15.089Z,98486.97
2023-01-20T08:47:46.013Z,98491.59
2023-01-20T08:50:14.623Z,98498.66
2023-01-20T08:52:42.353Z,98493.47
2023-01-20T08:55:10.286Z,98506.13
2023-01-20T08:57:36.951Z,98505.88
2023-01-20T09:00:05.748Z,98516.91
2023-01-20T09:02:32.185Z,98516.09
2023-01-20T09:04:58.886Z,98515.28
2023-01-20T09:07:25.380Z,98527.81
2023-01-20T09:09:51.927Z,98520.59
2023-01-20T09:12:18.349Z,98531.06
2023-01-20T09:14:44.825Z,98526.53
2023-01-20T09:17:11.228Z,98531.97
2023-01-20T09:19:37.589Z,98531.97
2023-01-20T09:22:04.283Z,98536.06
2023-01-20T09:24:30.705Z,98547.88
2023-01-20T09:26:57.346Z,98536.19
2023-01-20T09:29:24.321Z,98543.16
2023-01-20T09:31:59.373Z,98539.88
2023-01-20T09:34:29.313Z,98546.88
2023-01-20T09:37:21.247Z,98550.25
2023-01-20T09:40:06.487Z,98547.22
2023-01-20T09:43:22.619Z,98556.25
2023-01-20T09:45:58.881Z,98560.41
2023-01-20T09:48:49.623Z,98553.69
2023-01-20T09:51:54.300Z,98556.00
2023-01-20T09:54:28.685Z,98556.13
2023-01-20T09:57:00.325Z,98564.22
2023-01-20T09:59:53.417Z,98562.34
2023-01-20T10:02:31.997Z,98561.63
2023-01-20T10:05:21.622Z,98553.13
2023-01-20T10:08:20.675Z,98560.09
2023-01-20T10:10:57.233Z,98555.81
2023-01-20T10:13:32.640Z,98557.53
2023-01-20T10:16:03.670Z,98553.66
2023-01-20T10:18:34.340Z,98553.88
2023-01-20T10:21:17.645Z,98560.44
2023-01-20T10:24:23.047Z,98556.38
2023-01-20T10:27:02.693Z,98559.41
2023-01-20T10:29:38.274Z,98566.75
2023-01-20T10:32:27.487Z,98567.72
2023-01-20T10:34:56.682Z,98571.41
2023-01-20T10:37:24.113Z,98567.25
2023-01-20T10:39:58.477Z,98566.94
2023-01-20T10:42:28.286Z,98569.59
2023-01-20T10:44:55.379Z,98569.16
2023-01-20T10:47:41.005Z,98567.97
2023-01-20T10:50:34.836Z,98568.44
2023-01-20T10:53:21.226Z,98573.22
2023-01-20T10:56:02.055Z,98573.53
2023-01-20T10:58:32.381Z,98568.56
2023-01-20T11:01:02.817Z,98571.94
2023-01-20T11:03:35.339Z,98572.16
2023-01-20T11:06:03.925Z,98569.97
2023-01-20T11:08:30.767Z,98571.22
2023-01-20T11:11:01.708Z,98570.97
2023-01-20T11:13:28.086Z,98576.19
2023-01-20T11:15:58.939Z,98572.66
2023-01-20T11:18:29.556Z,98579.28
2023-01-20T11:20:56.074Z,98576.53
2023-01-20T11:23:39.129Z,98577.22
2023-01-20T11:26:35.832Z,98575.31
2023-01-20T11:29:10.038Z,98573.91
2023-01-20T11:31:55.455Z,98574.09
2023-01-20T11:34:28.150Z,98567.00
2023-01-20T11:37:06.795Z,98571.13
2023-01-20T11:39:43.720Z,98577.19
2023-01-20T11:42:12.430Z,98575.16
2023-01-20T11:44:43.702Z,98572.09
2023-01-20T11:47:33.687Z,98574.44
2023-01-20T11:50:09.245Z,98576.78
2023-01-20T11:52:45.596Z,98574.31
2023-01-20T11:55:23.428Z,98570.03
2023-01-20T11:57:56.802Z,98576.69
2023-01-20T12:00:26.240Z,98583.69
2023-01-20T12:03:10.977Z,98582.09
2023-01-20T12:05:59.778Z,98580.88
2023-01-20T12:08:40.013Z,98584.88
2023-01-20T12:11:07.565Z,98594.53
2023-01-20T12:14:06.441Z,98594.28
2023-01-20T12:16:33.357Z,98595.63
2023-01-20T12:19:06.409Z,98584.81
2023-01-20T12:21:40.658Z,98587.56
2023-01-20T12:24:58.445Z,98585.78
2023-01-20T12:27:28.095Z,98592.47
2023-01-20T12:30:03.082Z,98588.41
2023-01-20T12:32:31.494Z,98595.41
2023-01-20T12:34:57.871Z,98590.53
2023-01-20T12:37:57.084Z,98592.81
2023-01-20T12:40:39.581Z,98593.16
2023-01-20T12:43:33.147Z,98598.78
2023-01-20T12:46:36.661Z,98603.59
2023-01-20T12:49:32.263Z,98601.38
2023-01-20T12:52:17.975Z,98611.75
2023-01-20T12:54:53.280Z,98624.88
2023-01-20T12:57:58.303Z,98604.41
2023-01-20T13:00:53.910Z,98616.28
2023-01-20T13:03:58.013Z,98613.50
2023-01-20T13:06:33.128Z,98614.81
2023-01-20T13:09:08.803Z,98615.53
2023-01-20T13:12:00.061Z,98614.28
2023-01-20T13:14:49.777Z,98610.97
2023-01-20T13:17:53.825Z,98615.03
2023-01-20T13:20:25.164Z,98596.22
2023-01-20T13:22:53.803Z,98616.00
2023-01-20T13:25:21.859Z,98616.50
2023-01-20T13:27:51.280Z,98621.28
2023-01-20T13:30:44.336Z,98621.16
2023-01-20T13:33:29.001Z,98624.28
2023-01-20T13:35:56.046Z,98625.59
2023-01-20T13:38:35.152Z,98625.84
2023-01-20T13:41:05.631Z,98616.75
2023-01-20T13:43:32.369Z,98622.09
2023-01-20T13:46:04.658Z,98629.31
2023-01-20T13:48:32.769Z,98625.84
2023-01-20T13:51:26.919Z,98630.38
2023-01-20T13:53:53.858Z,98629.78
2023-01-20T13:56:25.967Z,98630.03
2023-01-20T13:58:53.597Z,98627.84
2023-01-20T14:01:20.130Z,98641.66
2023-01-20T14:04:02.952Z,98638.91
2023-01-20T14:06:29.784Z,98632.97
2023-01-20T14:08:56.300Z,98634.56
2023-01-20T14:11:24.826Z,98642.59
2023-01-20T14:13:56.862Z,98639.13
2023-01-20T14:16:45.987Z,98636.81
2023-01-20T14:19:23.383Z,98640.59
2023-01-20T14:22:17.715Z,98643.50
2023-01-20T14:24:46.745Z,98642.66
2023-01-20T14:27:22.864Z,98639.75
2023-01-20T14:29:51.866Z,98640.47
2023-01-20T14:32:47.533Z,98641.41
2023-01-20T14:35:17.142Z,98648.84
2023-01-20T14:37:50.408Z,98653.03
2023-01-20T14:40:23.630Z,98651.91
2023-01-20T14:43:30.584Z,98652.34
2023-01-20T14:45:57.211Z,98659.81
2023-01-20T14:48:34.584Z,98662.72
2023-01-20T14:51:04.024Z,98659.81
2023-01-20T14:53:30.458Z,98660.97
2023-01-20T14:56:07.886Z,98666.66
2023-01-20T14:58:36.190Z,98667.00
2023-01-20T15:01:05.311Z,98671.06
2023-01-20T15:03:32.444Z,98664.91
2023-01-20T15:06:08.672Z,98671.31
2023-01-20T15:08:35.143Z,98667.47
2023-01-20T15:11:12.876Z,98673.75
2023-01-20T15:13:41.522Z,98673.88
2023-01-20T15:16:18.326Z,98675.63
2023-01-20T15:19:17.367Z,98677.59
2023-01-20T15:21:52.365Z,98679.59
2023-01-20T15:24:30.685Z,98680.53
2023-01-20T15:26:59.101Z,98681.00
2023-01-20T15:29:30.663Z,98681.47
2023-01-20T15:32:00.231Z,98685.88
2023-01-20T15:34:28.443Z,98690.28
2023-01-20T15:36:55.827Z,98695.50
2023-01-20T15:39:25.940Z,98695.84
2023-01-20T15:41:55.471Z,98690.84
2023-01-20T15:44:22.347Z,98687.00
2023-01-20T15:46:48.829Z,98703.25
2023-01-20T15:49:15.813Z,98697.44
2023-01-20T15:51:43.118Z,98699.41
2023-01-20T15:54:10.235Z,98698.78
2023-01-20T15:56:39.355Z,98706.69
2023-01-20T15:59:12.346Z,98700.19
2023-01-20T16:01:38.871Z,98703.75
2023-01-20T16:04:05.432Z,98710.81
2023-01-20T16:06:33.743Z,98710.22
2023-01-20T16:09:01.817Z,98713.00
2023-01-20T16:11:31.284Z,98711.22
2023-01-20T16:14:19.685Z,98718.06
2023-01-20T16:16:46.104Z,98717.91
2023-01-20T16:19:13.491Z,98733.34
2023-01-20T16:21:40.088Z,98732.72
2023-01-20T16:24:06.947Z,98734.81
2023-01-20T16:26:35.251Z,98735.63
2023-01-20T16:29:01.701Z,98739.81
2023-01-20T16:31:28.563Z,98734.69
2023-01-20T16:33:55.609Z,98743.13
2023-01-20T16:36:23.923Z,98746.84
2023-01-20T16:38:51.466Z,98751.94
2023-01-20T16:41:22.623Z,98749.13
2023-01-20T16:43:50.272Z,98749.59
2023-01-20T16:46:19.527Z,98751.66
2023-01-20T16:48:46.064Z,98750.25
2023-01-20T16:51:17.153Z,98747.00
2023-01-20T16:53:43.632Z,98746.63
2023-01-20T16:56:22.523Z,98754.03
2023-01-20T16:58:51.636Z,98760.63
2023-01-20T17:01:22.230Z,98766.38
2023-01-20T17:03:49.103Z,98765.66
2023-01-20T17:06:18.182Z,98762.41
2023-01-20T17:08:46.092Z,98770.22
2023-01-20T17:11:21.595Z,98768.22
2023-01-20T17:13:48.497Z,98768.91
2023-01-20T17:16:15.179Z,98770.94
2023-01-20T17:18:45.059Z,98776.16
2023-01-20T17:21:13.088Z,98772.84
2023-01-20T17:23:40.123Z,98782.34
2023-01-20T17:26:07.871Z,98794.25
2023-01-20T17:28:34.357Z,98788.53
2023-01-20T17:31:06.097Z,98785.72
2023-01-20T17:33:33.324Z,98780.84
2023-01-20T17:36:02.035Z,98790.66
2023-01-20T17:38:29.976Z,98791.91
2023-01-20T17:41:06.809Z,98783.09
2023-01-20T17:43:34.795Z,98791.53
2023-01-20T17:46:01.900Z,98798.91
2023-01-20T17:48:28.489Z,98785.22
2023-01-20T17:50:59.300Z,98793.63
2023-01-20T17:53:26.791Z,98794.03
2023-01-20T17:56:06.651Z,98804.09
2023-01-20T17:58:39.036Z,98811.88
2023-01-20T18:01:22.138Z,98807.97
2023-01-20T18:03:50.620Z,98817.00
2023-01-20T18:06:18.883Z,98819.09
2023-01-20T18:08:51.228Z,98819.09
2023-01-20T18:11:21.708Z,98821.16
2023-01-20T18:13:50.152Z,98824.00
2023-01-20T18:16:19.324Z,98822.81
2023-01-20T18:18:47.367Z,98815.88
2023-01-20T18:21:15.118Z,98825.72
2023-01-20T18:23:42.394Z,98827.75
2023-01-20T18:26:10.324Z,98829.22
2023-01-20T18:28:37.779Z,98837.41
2023-01-20T18:31:10.798Z,98828.22
2023-01-20T18:33:44.369Z,98825.78
2023-01-20T18:36:14.778Z,98830.09
2023-01-20T18:38:44.916Z,98823.13
2023-01-20T18:41:13.440Z,98825.78
2023-01-20T18:43:40.451Z,98823.53
2023-01-20T18:46:07.932Z,98822.31
2023-01-20T18:48:38.492Z,98826.78
2023-01-20T18:51:05.271Z,98824.56
2023-01-20T18:53:32.654Z,98827.47
2023-01-20T18:56:00.407Z,98833.59
2023-01-20T18:58:28.500Z,98837.28
2023-01-20T19:01:02.602Z,98830.16
2023-01-20T19:03:29.294Z,98845.09
2023-01-20T19:06:02.814Z,98840.00
2023-01-20T19:08:29.355Z,98846.34
2023-01-20T19:11:00.004Z,98850.41
2023-01-20T19:13:26.440Z,98835.88
2023-01-20T19:15:53.349Z,98849.81
2023-01-20T19:18:19.807Z,98849.19
2023-01-20T19:20:46.227Z,98846.75
2023-01-20T19:23:13.693Z,98846.38
2023-01-20T19:25:40.201Z,98844.75
2023-01-20T19:28:08.485Z,98841.47
2023-01-20T19:30:36.371Z,98844.13
2023-01-20T19:33:02.764Z,98853.13
2023-01-20T19:35:31.479Z,98844.78
2023-01-20T19:37:58.026Z,98850.28
2023-01-20T19:40:24.450Z,98853.38
2023-01-20T19:42:52.513Z,98847.25
2023-01-20T19:45:18.984Z,98849.31
2023-01-20T19:47:45.495Z,98848.06
2023-01-20T19:50:12.014Z,98851.31
2023-01-20T19:52:38.375Z,98856.66
2023-01-20T19:55:05.062Z,98850.28
2023-01-20T19:57:31.534Z,98856.66
2023-01-20T19:59:58.062Z,98860.34
2023-01-20T20:02:24.606Z,98862.41
2023-01-20T20:04:51.020Z,98861.19
2023-01-20T20:07:17.379Z,98858.75
2023-01-20T20:09:43.801Z,98863.25
2023-01-20T20:12:10.180Z,98867.13
2023-01-20T20:14:36.593Z,98867.97
2023-01-20T20:17:03.285Z,98867.97
2023-01-20T20:19:29.725Z,98873.69
2023-01-20T20:21:58.445Z,98874.28
2023-01-20T20:24:24.855Z,98875.53
2023-01-20T20:26:51.396Z,98877.38
2023-01-20T20:29:19.069Z,98874.72
2023-01-20T20:31:45.665Z,98883.72
2023-01-20T20:34:17.935Z,98875.34
2023-01-20T20:36:45.044Z,98871.88
2023-01-20T20:39:17.273Z,98871.50
2023-01-20T20:41:45.925Z,98876.81
2023-01-20T20:44:13.096Z,98880.31
2023-01-20T20:46:40.082Z,98881.72
2023-01-20T20:49:06.521Z,98880.28
2023-01-20T20:51:34.275Z,98884.94
2023-01-20T20:54:02.892Z,98889.28
2023-01-20T20:56:33.195Z,98883.31
2023-01-20T20:59:02.773Z,98887.81
2023-01-20T21:01:32.875Z,98887.59
2023-01-20T21:06:36.257Z,98893.94
2023-01-20T21:09:02.906Z,98887.41
2023-01-20T21:11:29.467Z,98897.03
2023-01-20T21:13:56.047Z,98887.19
2023-01-20T21:16:24.111Z,98891.47
2023-01-20T21:18:52.715Z,98900.50
2023-01-20T21:21:20.222Z,98887.78
2023-01-20T21:23:52.082Z,98901.28
2023-01-20T21:26:19.221Z,98897.81
2023-01-20T21:28:49.043Z,98898.03
2023-01-20T21:31:21.542Z,98899.66
2023-01-20T21:33:53.370Z,98901.50
2023-01-20T21:36:20.355Z,98898.63
2023-01-20T21:38:46.740Z,98908.25
2023-01-20T21:41:14.644Z,98913.56
2023-01-20T21:44:01.739Z,98913.56
2023-01-20T21:46:30.927Z,98914.59
2023-01-20T21:49:15.949Z,98917.63
2023-01-20T21:52:00.830Z,98912.13
2023-01-20T21:54:30.296Z,98923.59
2023-01-20T21:56:57.105Z,98920.28
2023-01-20T21:59:23.904Z,98912.75
2023-01-20T22:01:50.638Z,98923.59
2023-01-20T22:04:17.215Z,98926.25
2023-01-20T22:06:43.626Z,98921.34
2023-01-20T22:09:10.172Z,98921.78
2023-01-20T22:11:36.519Z,98927.09
2023-01-20T22:14:03.542Z,98926.28
2023-01-20T22:16:31.956Z,98928.72
2023-01-20T22:18:58.436Z,98932.00
2023-01-20T22:21:25.531Z,98934.06
2023-01-20T22:23:53.484Z,98938.16
2023-01-20T22:26:19.891Z,98934.28
2023-01-20T22:28:46.430Z,98939.59
2023-01-20T22:31:19.971Z,98943.06
2023-01-20T22:33:53.779Z,98943.69
2023-01-20T22:36:21.090Z,98946.13
2023-01-20T22:38:49.491Z,98946.94
2023-01-20T22:41:16.751Z,98947.78
2023-01-20T22:43:47.956Z,98945.13
2023-01-20T22:46:16.555Z,98942.47
2023-01-20T22:48:43.341Z,98945.13
2023-01-20T22:51:21.910Z,98947.56
2023-01-20T22:53:48.928Z,98950.44
2023-01-20T22:56:17.723Z,98954.09
2023-01-20T22:58:45.030Z,98954.09
2023-01-20T23:01:23.284Z,98947.97
2023-01-20T23:03:55.739Z,98949.59
2023-01-20T23:06:23.275Z,98955.75
2023-01-20T23:08:50.211Z,98956.16
2023-01-20T23:11:18.107Z,98953.94
2023-01-20T23:13:45.390Z,98954.97
2023-01-20T23:16:15.298Z,98961.91
2023-01-20T23:18:41.821Z,98954.97
2023-01-20T23:21:08.350Z,98963.53
2023-01-20T23:23:37.879Z,98962.72
2023-01-20T23:26:09.553Z,98959.03
2023-01-20T23:28:36.108Z,98961.50
2023-01-20T23:31:04.863Z,98963.53
2023-01-20T23:33:32.165Z,98968.28
2023-01-20T23:36:12.236Z,98963.13
2023-01-20T23:38:38.823Z,98963.94
2023-01-20T23:41:05.363Z,98969.25
2023-01-20T23:43:32.530Z,98968.66
2023-01-20T23:46:00.927Z,98966.59
2023-01-20T23:48:28.782Z,98969.09
2023-01-20T23:50:56.506Z,98973.59
2023-01-20T23:53:24.089Z,98976.25
2023-01-20T23:55:50.641Z,98976.25
2023-01-20T23:58:17.227Z,98981.56
